OENG

Details ICAO OENG (EAM)
Name NEJRAN
Region Saudi Arabia
Timezone Asia/Riyadh (UTC+3.0)
Plans Departing 2
Arriving 3
Stats Elevation 3,982 ft / 1,214 m (AMSL)
Location 17.611436° 44.419170°
Runways 1
Magnetic Variation 2.442° E
Sunrise 2017-12-11 03:24:08 UTC / 2017-12-11 06:24:08 Local
Sunset 2017-12-11 14:29:50 UTC / 2017-12-11 17:29:50 Local
Advertisement - Login to hide

Runways

ID Width Length Bearing (true) Bearing (mag) Surface Threshold Offset Overrun Length
06 147 ft / 45 m 10,026 ft / 3,056 m 59.83° 57.39° Asphalt 0 ft / 0 m 895 ft / 273 m
24 147 ft / 45 m 10,026 ft / 3,056 m 239.84° 237.40° Asphalt 0 ft / 0 m 194 ft / 59 m

Map

Weather


0- 5 10 15 20 25 30 35+ Temperature / ° C

Clouds and Precipitation
Forecast for 2017-12-11 18:00 UTC. Updated 2 hours ago

Ground ~20,000 ft ~40,000 ft Winds

METAR

OENG 111600Z 08006KT CAVOK 14/M09 Q1025 NOSIG

TAF

Not found

Frequencies

Unicom 122.80 MHz CTAF
Tower 118.50 MHz TWR
Ground 121.90 MHz GND
Warning: Do not use this data for real-world aviation or navigation. No guarantee of current accuracy is given.